Time;durP1;ratioP1;P1;durP2;ratioP2;P2;SDS_P1;SDS_P2;PMS_P1;PMS_P2;Temp;Humidity;BMP_temperature;BMP_pressure;BME280_temperature;BME280_humidity;BME280_pressure;Samples;Min_cycle;Max_cycle;Signal;HPM_P1;HPM_P2
2023/12/15 00:00:30;;;;;;;;;9.67;8.33;;;;;;;;5099542;27;45215;-69
2023/12/15 00:02:56;;;;;;;;;10.67;7.67;;;;;;;;5098356;27;45199;-71
2023/12/15 00:05:21;;;;;;;;;7.33;7.33;;;;;;;;5080491;27;45150;-68
2023/12/15 00:07:46;;;;;;;;;8.33;7.00;;;;;;;;5098332;27;46584;-69
2023/12/15 00:10:12;;;;;;;;;10.67;8.00;;;;;;;;5099753;27;45281;-68
2023/12/15 00:12:37;;;;;;;;;8.33;8.33;;;;;;;;5097500;27;45639;-69
2023/12/15 00:15:02;;;;;;;;;10.67;8.00;;;;;;;;5100228;27;45311;-69
2023/12/15 00:17:28;;;;;;;;;10.33;8.00;;;;;;;;5099430;27;47744;-71
2023/12/15 00:19:53;;;;;;;;;9.67;7.67;;;;;;;;5099808;27;45451;-71
2023/12/15 00:22:18;;;;;;;;;11.00;7.67;;;;;;;;5099952;27;45278;-70
2023/12/15 00:24:43;;;;;;;;;9.00;9.00;;;;;;;;5097809;27;46229;-68
2023/12/15 00:27:09;;;;;;;;;12.00;10.00;;;;;;;;5099524;27;46051;-69
2023/12/15 00:29:34;;;;;;;;;8.00;8.00;;;;;;;;5096032;27;45455;-68
2023/12/15 00:31:59;;;;;;;;;13.00;9.33;;;;;;;;5099888;27;45449;-70
2023/12/15 00:34:24;;;;;;;;;10.00;10.00;;;;;;;;5099497;27;45430;-70
2023/12/15 00:36:50;;;;;;;;;7.00;7.00;;;;;;;;5099174;27;46189;-69
2023/12/15 00:39:15;;;;;;;;;11.67;9.00;;;;;;;;5099119;27;45319;-68
2023/12/15 00:41:40;;;;;;;;;8.33;8.33;;;;;;;;5099544;27;45679;-68
2023/12/15 00:44:05;;;;;;;;;11.00;11.00;;;;;;;;5090867;27;45355;-69
2023/12/15 00:46:31;;;;;;;;;11.00;10.00;;;;;;;;5084460;27;45458;-69
2023/12/15 00:48:57;;;;;;;;;11.00;5.67;;;;;;;;5078120;27;45388;-71
2023/12/15 00:51:22;;;;;;;;;10.00;10.00;;;;;;;;5098968;27;45199;-70
2023/12/15 00:53:47;;;;;;;;;14.00;8.00;;;;;;;;5096370;27;45620;-70
2023/12/15 00:56:13;;;;;;;;;11.00;9.67;;;;;;;;5076105;27;48333;-68
2023/12/15 00:58:38;;;;;;;;;10.33;10.00;;;;;;;;5088021;27;45220;-70
2023/12/15 01:01:03;;;;;;;;;9.33;8.33;;;;;;;;5084690;27;45444;-71
2023/12/15 01:03:30;;;;;;;;;15.33;9.00;;;;;;;;5095243;27;45646;-69
2023/12/15 01:05:55;;;;;;;;;16.67;10.00;;;;;;;;5097540;27;46502;-69
2023/12/15 01:08:20;;;;;;;;;13.00;13.00;;;;;;;;5089261;27;45413;-72
2023/12/15 01:10:45;;;;;;;;;10.33;10.33;;;;;;;;5096877;27;45502;-68
2023/12/15 01:13:11;;;;;;;;;12.33;10.33;;;;;;;;5091329;27;45161;-68
2023/12/15 01:15:36;;;;;;;;;12.33;9.67;;;;;;;;5091819;27;45986;-71
2023/12/15 01:18:01;;;;;;;;;12.67;11.67;;;;;;;;5089195;27;45218;-68
2023/12/15 01:20:26;;;;;;;;;14.33;11.33;;;;;;;;5092809;27;46182;-68
2023/12/15 01:22:51;;;;;;;;;14.33;11.00;;;;;;;;5095190;27;45399;-72
2023/12/15 01:25:16;;;;;;;;;16.00;11.00;;;;;;;;5095839;27;45651;-72
2023/12/15 01:27:42;;;;;;;;;15.67;13.00;;;;;;;;5097379;27;45517;-69
2023/12/15 01:30:07;;;;;;;;;12.00;11.00;;;;;;;;5097236;27;45531;-72
2023/12/15 01:32:32;;;;;;;;;14.00;10.67;;;;;;;;5098159;27;45387;-69
2023/12/15 01:34:58;;;;;;;;;9.33;9.00;;;;;;;;5097469;27;46747;-69
2023/12/15 01:37:23;;;;;;;;;14.00;11.00;;;;;;;;5098004;27;45291;-69
2023/12/15 01:39:48;;;;;;;;;15.67;13.67;;;;;;;;5093538;27;45400;-69
2023/12/15 01:42:13;;;;;;;;;11.33;11.00;;;;;;;;5091581;27;45289;-69
2023/12/15 01:44:39;;;;;;;;;16.33;14.67;;;;;;;;5085157;27;46776;-68
2023/12/15 01:47:04;;;;;;;;;14.00;12.33;;;;;;;;5080339;27;45398;-69
2023/12/15 01:49:30;;;;;;;;;21.67;15.00;;;;;;;;5090250;27;45311;-69
2023/12/15 01:51:55;;;;;;;;;16.67;12.33;;;;;;;;5093830;27;45433;-68
2023/12/15 01:54:20;;;;;;;;;16.00;12.33;;;;;;;;5089066;27;46013;-69
2023/12/15 01:56:45;;;;;;;;;15.67;13.67;;;;;;;;5087482;27;46058;-68
2023/12/15 01:59:11;;;;;;;;;19.67;12.33;;;;;;;;5097629;27;45838;-69
2023/12/15 02:01:36;;;;;;;;;14.67;10.67;;;;;;;;5088031;27;45482;-69
2023/12/15 02:04:01;;;;;;;;;20.00;14.33;;;;;;;;5081582;27;46734;-68
2023/12/15 02:06:26;;;;;;;;;18.67;12.67;;;;;;;;5083968;27;45266;-70
2023/12/15 02:08:52;;;;;;;;;18.00;12.00;;;;;;;;5082385;27;45479;-72
2023/12/15 02:11:17;;;;;;;;;15.00;14.00;;;;;;;;5086627;27;45334;-68
2023/12/15 02:13:42;;;;;;;;;14.00;14.00;;;;;;;;5088209;27;46227;-68
2023/12/15 02:16:08;;;;;;;;;12.67;12.67;;;;;;;;5094804;27;45375;-68
2023/12/15 02:18:33;;;;;;;;;15.00;14.00;;;;;;;;5093764;27;45595;-67
2023/12/15 02:20:58;;;;;;;;;14.33;13.67;;;;;;;;5094654;27;45275;-69
2023/12/15 02:23:23;;;;;;;;;15.33;12.33;;;;;;;;5095275;27;46665;-69
2023/12/15 02:25:48;;;;;;;;;15.00;13.00;;;;;;;;5089618;27;45581;-67
2023/12/15 02:28:14;;;;;;;;;14.00;11.00;;;;;;;;5094785;27;45689;-69
2023/12/15 02:30:39;;;;;;;;;11.33;11.00;;;;;;;;5092977;27;45488;-68
2023/12/15 02:33:04;;;;;;;;;16.00;14.00;;;;;;;;5086760;27;46708;-67
2023/12/15 02:35:29;;;;;;;;;15.33;13.00;;;;;;;;5091200;27;45506;-72
2023/12/15 02:37:54;;;;;;;;;17.33;17.00;;;;;;;;5087538;27;45620;-68
2023/12/15 02:40:20;;;;;;;;;22.50;16.75;;;;;;;;5091069;27;45267;-69
2023/12/15 02:42:45;;;;;;;;;18.00;18.00;;;;;;;;5091952;27;45659;-71
2023/12/15 02:45:10;;;;;;;;;19.00;17.00;;;;;;;;5089691;27;45449;-69
2023/12/15 02:47:35;;;;;;;;;16.25;14.75;;;;;;;;5090258;27;45207;-68
2023/12/15 02:50:01;;;;;;;;;17.33;13.33;;;;;;;;5083900;27;45620;-69
2023/12/15 02:52:26;;;;;;;;;15.33;13.33;;;;;;;;5089091;27;45848;-70
2023/12/15 02:54:51;;;;;;;;;14.67;14.67;;;;;;;;5095270;27;45474;-71
2023/12/15 02:57:17;;;;;;;;;17.33;17.33;;;;;;;;5088105;27;45552;-71
2023/12/15 02:59:42;;;;;;;;;15.67;12.33;;;;;;;;5088350;27;45493;-70
2023/12/15 03:02:07;;;;;;;;;15.33;10.00;;;;;;;;5086361;27;45586;-69
2023/12/15 03:04:32;;;;;;;;;18.33;16.00;;;;;;;;5079702;27;45500;-69
2023/12/15 03:06:58;;;;;;;;;15.33;12.67;;;;;;;;5086442;27;45300;-69
2023/12/15 03:09:23;;;;;;;;;15.00;11.00;;;;;;;;5083171;27;45599;-68
2023/12/15 03:11:48;;;;;;;;;16.00;11.00;;;;;;;;5095805;27;45724;-71
2023/12/15 03:14:13;;;;;;;;;21.00;15.00;;;;;;;;5092428;27;45640;-69
2023/12/15 03:16:39;;;;;;;;;15.00;14.00;;;;;;;;5093918;27;45373;-68
2023/12/15 03:19:04;;;;;;;;;17.33;14.33;;;;;;;;5090419;27;45529;-68
2023/12/15 03:21:29;;;;;;;;;17.33;16.00;;;;;;;;5094683;27;46908;-69
2023/12/15 03:23:54;;;;;;;;;12.67;10.33;;;;;;;;5092249;27;45624;-69
2023/12/15 03:26:19;;;;;;;;;11.25;11.25;;;;;;;;5093024;27;45733;-68
2023/12/15 03:28:45;;;;;;;;;14.25;11.75;;;;;;;;5086462;27;45617;-70
2023/12/15 03:31:10;;;;;;;;;23.00;16.67;;;;;;;;5089777;27;46267;-72
2023/12/15 03:33:35;;;;;;;;;19.00;15.33;;;;;;;;5084947;27;45789;-70
2023/12/15 03:36:01;;;;;;;;;20.50;16.50;;;;;;;;5091096;27;45699;-70
2023/12/15 03:38:26;;;;;;;;;21.75;17.00;;;;;;;;5091461;27;45409;-69
2023/12/15 03:40:51;;;;;;;;;19.00;14.33;;;;;;;;5098073;27;46513;-69
2023/12/15 03:43:16;;;;;;;;;19.00;14.33;;;;;;;;5096185;27;45801;-68
2023/12/15 03:45:42;;;;;;;;;18.00;16.33;;;;;;;;5091396;27;45767;-69
2023/12/15 03:48:07;;;;;;;;;22.50;17.75;;;;;;;;5093753;27;45575;-69
2023/12/15 03:50:32;;;;;;;;;17.33;15.33;;;;;;;;5091593;27;45918;-71
2023/12/15 03:52:58;;;;;;;;;13.33;12.00;;;;;;;;5093016;27;45402;-70
2023/12/15 03:55:23;;;;;;;;;19.67;13.67;;;;;;;;5099705;27;45475;-70
2023/12/15 03:57:49;;;;;;;;;19.00;15.33;;;;;;;;5094413;27;45156;-69
2023/12/15 04:00:14;;;;;;;;;18.33;15.00;;;;;;;;5099797;27;46581;-69
2023/12/15 04:02:39;;;;;;;;;14.00;14.00;;;;;;;;5087508;27;45490;-69
2023/12/15 04:05:05;;;;;;;;;20.67;17.00;;;;;;;;5094681;27;45496;-69
2023/12/15 04:07:30;;;;;;;;;15.33;14.00;;;;;;;;5089839;27;45323;-69
2023/12/15 04:09:56;;;;;;;;;15.00;13.67;;;;;;;;5074062;27;48528;-68
2023/12/15 04:12:21;;;;;;;;;18.67;15.33;;;;;;;;5082650;27;46154;-71
2023/12/15 04:14:46;;;;;;;;;14.67;14.67;;;;;;;;5087637;27;45404;-68
2023/12/15 04:17:11;;;;;;;;;13.67;10.67;;;;;;;;5099598;27;45637;-68
2023/12/15 04:19:36;;;;;;;;;18.00;16.67;;;;;;;;5098138;27;46268;-69
2023/12/15 04:22:02;;;;;;;;;12.67;12.67;;;;;;;;5097155;27;45686;-69
2023/12/15 04:24:27;;;;;;;;;16.00;11.67;;;;;;;;5095310;27;45471;-69
2023/12/15 04:26:53;;;;;;;;;15.00;12.33;;;;;;;;5095134;27;45326;-69
2023/12/15 04:29:18;;;;;;;;;16.33;12.00;;;;;;;;5088473;27;46907;-68
2023/12/15 04:31:43;;;;;;;;;10.67;10.33;;;;;;;;5084865;27;45294;-69
2023/12/15 04:34:09;;;;;;;;;11.33;10.33;;;;;;;;5087845;27;45309;-70
2023/12/15 04:36:34;;;;;;;;;16.00;12.00;;;;;;;;5092786;27;45287;-69
2023/12/15 04:38:59;;;;;;;;;17.67;16.00;;;;;;;;5082163;27;45566;-70
2023/12/15 04:41:25;;;;;;;;;17.33;15.00;;;;;;;;5097677;27;45437;-69
2023/12/15 04:43:50;;;;;;;;;18.00;14.00;;;;;;;;5097823;27;45298;-68
2023/12/15 04:46:29;;;;;;;;;18.00;12.67;;;;;;;;5093211;27;47123;-69
2023/12/15 04:48:54;;;;;;;;;19.33;18.00;;;;;;;;5094978;27;45815;-69
2023/12/15 04:51:20;;;;;;;;;16.67;15.67;;;;;;;;5092929;27;45366;-69
2023/12/15 04:53:46;;;;;;;;;11.67;11.67;;;;;;;;5091080;27;45284;-69
2023/12/15 04:56:11;;;;;;;;;15.67;10.00;;;;;;;;5082260;27;45390;-71
2023/12/15 04:58:37;;;;;;;;;16.00;12.67;;;;;;;;5096846;27;46110;-69
2023/12/15 05:01:02;;;;;;;;;16.67;12.00;;;;;;;;5088434;27;45551;-68
2023/12/15 05:03:28;;;;;;;;;23.33;15.00;;;;;;;;5091123;27;45537;-69
2023/12/15 05:05:53;;;;;;;;;16.33;15.67;;;;;;;;5093514;27;45261;-71
2023/12/15 05:08:18;;;;;;;;;14.67;14.67;;;;;;;;5088102;27;47019;-70
2023/12/15 05:10:43;;;;;;;;;14.00;12.67;;;;;;;;5079931;27;45445;-69
2023/12/15 05:13:08;;;;;;;;;15.00;13.33;;;;;;;;5087351;27;45530;-69
2023/12/15 05:15:33;;;;;;;;;12.00;9.33;;;;;;;;5085172;27;45363;-69
2023/12/15 05:17:59;;;;;;;;;15.67;14.00;;;;;;;;5097928;27;45718;-68
2023/12/15 05:20:24;;;;;;;;;16.67;16.33;;;;;;;;5094997;27;45431;-68
2023/12/15 05:22:49;;;;;;;;;12.67;12.67;;;;;;;;5098894;27;45355;-69
2023/12/15 05:25:14;;;;;;;;;16.00;12.00;;;;;;;;5091960;27;45548;-68
2023/12/15 05:27:39;;;;;;;;;16.67;14.67;;;;;;;;5095384;27;45845;-68
2023/12/15 05:30:05;;;;;;;;;14.33;14.33;;;;;;;;5089354;27;45532;-69
2023/12/15 05:32:30;;;;;;;;;12.33;11.00;;;;;;;;5094129;27;45505;-68
2023/12/15 05:34:55;;;;;;;;;18.00;15.00;;;;;;;;5091076;27;45434;-69
2023/12/15 05:37:20;;;;;;;;;16.33;11.67;;;;;;;;5082404;27;47287;-69
2023/12/15 05:39:46;;;;;;;;;14.00;14.00;;;;;;;;5097786;27;45457;-71
2023/12/15 05:42:11;;;;;;;;;16.67;14.00;;;;;;;;5095692;27;45326;-67
2023/12/15 05:44:40;;;;;;;;;16.33;14.00;;;;;;;;5091062;27;45452;-67
2023/12/15 05:47:05;;;;;;;;;16.67;13.33;;;;;;;;5094858;27;47073;-69
2023/12/15 05:49:30;;;;;;;;;15.00;14.67;;;;;;;;5096021;27;45540;-68
2023/12/15 05:51:56;;;;;;;;;14.33;14.00;;;;;;;;5097937;27;45401;-67
2023/12/15 05:54:21;;;;;;;;;15.67;14.00;;;;;;;;5090789;27;45540;-69
2023/12/15 05:56:46;;;;;;;;;16.00;14.33;;;;;;;;5087625;27;46208;-67
2023/12/15 05:59:11;;;;;;;;;12.33;11.67;;;;;;;;5089332;27;45593;-71
2023/12/15 06:01:36;;;;;;;;;15.00;11.67;;;;;;;;5072636;27;45453;-70
2023/12/15 06:04:01;;;;;;;;;16.00;14.00;;;;;;;;5222334;22;46891;-69
2023/12/15 06:06:27;;;;;;;;;15.00;13.33;;;;;;;;5094695;27;46817;-71
2023/12/15 06:08:52;;;;;;;;;17.00;14.00;;;;;;;;5089121;27;45604;-68
2023/12/15 06:11:17;;;;;;;;;15.33;14.33;;;;;;;;5093356;27;45223;-69
2023/12/15 06:13:43;;;;;;;;;23.00;15.00;;;;;;;;5089700;27;45516;-69
2023/12/15 06:16:08;;;;;;;;;11.67;11.67;;;;;;;;5091052;27;46015;-69
2023/12/15 06:18:33;;;;;;;;;13.33;10.00;;;;;;;;5094621;27;45458;-69
2023/12/15 06:20:58;;;;;;;;;13.33;11.33;;;;;;;;5089059;27;45425;-69
2023/12/15 06:23:24;;;;;;;;;12.33;10.67;;;;;;;;5091238;27;45510;-69
2023/12/15 06:25:49;;;;;;;;;11.67;11.67;;;;;;;;5090515;27;46725;-74
2023/12/15 06:28:14;;;;;;;;;15.33;13.33;;;;;;;;5091389;27;45421;-70
2023/12/15 06:30:39;;;;;;;;;18.33;14.67;;;;;;;;5094692;27;45282;-69
2023/12/15 06:33:05;;;;;;;;;15.67;12.33;;;;;;;;5097054;27;45734;-70
2023/12/15 06:35:30;;;;;;;;;10.00;10.00;;;;;;;;5096719;27;45508;-69
2023/12/15 06:37:55;;;;;;;;;17.67;13.67;;;;;;;;5096526;27;45306;-71
2023/12/15 06:40:21;;;;;;;;;20.00;15.00;;;;;;;;5096305;27;45532;-69
2023/12/15 06:42:46;;;;;;;;;21.67;11.33;;;;;;;;5091314;27;45640;-69
2023/12/15 06:45:11;;;;;;;;;20.33;11.67;;;;;;;;5089861;27;45786;-69
2023/12/15 06:47:37;;;;;;;;;14.00;13.67;;;;;;;;5090155;27;45235;-69
2023/12/15 06:50:03;;;;;;;;;17.33;14.67;;;;;;;;5094593;27;45395;-73
2023/12/15 06:52:28;;;;;;;;;18.67;15.67;;;;;;;;5096686;27;45333;-69
2023/12/15 06:54:53;;;;;;;;;17.67;16.33;;;;;;;;5095086;27;45928;-69
2023/12/15 06:57:18;;;;;;;;;16.33;16.33;;;;;;;;5096381;27;45466;-69
2023/12/15 06:59:43;;;;;;;;;16.67;16.33;;;;;;;;5096991;27;45393;-71
2023/12/15 07:02:09;;;;;;;;;22.67;16.33;;;;;;;;5096475;27;45703;-69
2023/12/15 07:04:34;;;;;;;;;22.00;18.33;;;;;;;;5094721;27;45807;-68
2023/12/15 07:06:59;;;;;;;;;22.67;16.33;;;;;;;;5086248;27;45460;-69
2023/12/15 07:09:24;;;;;;;;;19.00;14.33;;;;;;;;5080066;27;45437;-69
2023/12/15 07:11:49;;;;;;;;;26.33;18.33;;;;;;;;5077239;27;45683;-71
2023/12/15 07:14:14;;;;;;;;;26.00;21.33;;;;;;;;5087356;27;46327;-74
2023/12/15 07:16:40;;;;;;;;;16.33;16.33;;;;;;;;5094051;27;45487;-72
2023/12/15 07:19:05;;;;;;;;;21.67;17.00;;;;;;;;5085013;27;46586;-70
2023/12/15 07:21:30;;;;;;;;;23.33;17.00;;;;;;;;5077539;27;45457;-70
2023/12/15 07:23:55;;;;;;;;;20.50;17.50;;;;;;;;5078993;27;47390;-72
2023/12/15 07:26:21;;;;;;;;;21.25;17.25;;;;;;;;5085384;27;45704;-71
2023/12/15 07:28:46;;;;;;;;;24.00;19.00;;;;;;;;5083137;27;45606;-72
2023/12/15 07:31:11;;;;;;;;;22.33;17.67;;;;;;;;5084365;27;45555;-70
2023/12/15 07:33:36;;;;;;;;;21.67;17.67;;;;;;;;5083822;27;46352;-74
2023/12/15 07:36:01;;;;;;;;;24.33;21.67;;;;;;;;5081612;27;45338;-74
2023/12/15 07:38:26;;;;;;;;;20.25;18.00;;;;;;;;5090893;27;45524;-73
2023/12/15 07:40:54;;;;;;;;;18.33;13.67;;;;;;;;5092624;27;45454;-68
2023/12/15 07:43:19;;;;;;;;;27.50;22.75;;;;;;;;5085707;27;46611;-70
2023/12/15 07:45:44;;;;;;;;;26.00;17.75;;;;;;;;5091609;27;45457;-70
2023/12/15 07:48:10;;;;;;;;;21.00;19.67;;;;;;;;5091454;27;45951;-69
2023/12/15 07:50:36;;;;;;;;;19.50;17.50;;;;;;;;5086835;27;45698;-71
2023/12/15 07:53:01;;;;;;;;;22.33;19.00;;;;;;;;5086146;27;45849;-72
2023/12/15 07:55:26;;;;;;;;;25.00;19.25;;;;;;;;5080736;27;45984;-69
2023/12/15 07:57:51;;;;;;;;;25.33;21.67;;;;;;;;5083717;27;45546;-71
2023/12/15 08:00:16;;;;;;;;;26.00;21.67;;;;;;;;5081021;27;45444;-70
2023/12/15 08:02:43;;;;;;;;;27.50;22.75;;;;;;;;5083803;27;46606;-71
2023/12/15 08:05:09;;;;;;;;;21.00;19.00;;;;;;;;5085321;27;45576;-70
2023/12/15 08:07:34;;;;;;;;;24.25;20.00;;;;;;;;5084698;27;46111;-69
2023/12/15 08:10:01;;;;;;;;;22.75;20.25;;;;;;;;5084533;27;45616;-69
2023/12/15 08:12:27;;;;;;;;;29.00;22.67;;;;;;;;5074480;27;47932;-70
2023/12/15 08:14:52;;;;;;;;;22.50;18.00;;;;;;;;5083312;27;45463;-70
2023/12/15 08:17:17;;;;;;;;;24.00;22.67;;;;;;;;5087882;27;45457;-69
2023/12/15 08:19:44;;;;;;;;;28.67;23.33;;;;;;;;5080081;27;46194;-70
2023/12/15 08:22:09;;;;;;;;;24.25;24.25;;;;;;;;5087149;27;45887;-69
2023/12/15 08:24:35;;;;;;;;;23.67;21.67;;;;;;;;5088263;27;45973;-69
2023/12/15 08:27:00;;;;;;;;;28.00;25.75;;;;;;;;5081045;27;45864;-70
2023/12/15 08:29:25;;;;;;;;;26.00;22.33;;;;;;;;5082121;27;45442;-69
2023/12/15 08:31:50;;;;;;;;;32.00;26.00;;;;;;;;5084502;27;45486;-68
2023/12/15 08:34:16;;;;;;;;;49.00;36.00;;;;;;;;5081140;27;45544;-70
2023/12/15 08:36:41;;;;;;;;;51.25;40.25;;;;;;;;5090865;27;46074;-69
2023/12/15 08:39:06;;;;;;;;;35.25;29.00;;;;;;;;5095167;27;45524;-69
2023/12/15 08:41:31;;;;;;;;;37.25;33.00;;;;;;;;5094691;27;46648;-69
2023/12/15 08:43:56;;;;;;;;;39.50;32.75;;;;;;;;5096266;27;45459;-69
2023/12/15 08:46:22;;;;;;;;;28.00;24.00;;;;;;;;5095254;27;45354;-75
2023/12/15 08:48:49;;;;;;;;;28.25;24.50;;;;;;;;5095768;27;45446;-75
2023/12/15 08:51:14;;;;;;;;;32.75;27.75;;;;;;;;5092946;27;46130;-74
2023/12/15 08:53:39;;;;;;;;;23.00;21.25;;;;;;;;5087248;27;45437;-74
2023/12/15 08:56:04;;;;;;;;;32.67;25.33;;;;;;;;5096575;27;45543;-74
2023/12/15 08:58:30;;;;;;;;;36.50;32.75;;;;;;;;5090322;27;45408;-74
2023/12/15 09:00:55;;;;;;;;;43.00;34.25;;;;;;;;5094815;27;45564;-74
2023/12/15 09:03:20;;;;;;;;;34.75;31.25;;;;;;;;5088841;27;45835;-75
2023/12/15 09:05:45;;;;;;;;;33.00;28.00;;;;;;;;5087099;27;46004;-74
2023/12/15 09:08:11;;;;;;;;;37.33;31.33;;;;;;;;5093543;27;46184;-74
2023/12/15 09:10:42;;;;;;;;;37.33;27.33;;;;;;;;5090961;27;47522;-74
2023/12/15 09:13:07;;;;;;;;;31.00;29.50;;;;;;;;5075605;27;45473;-73
2023/12/15 09:15:32;;;;;;;;;31.75;29.25;;;;;;;;5091510;27;45523;-74
2023/12/15 09:17:57;;;;;;;;;26.67;25.33;;;;;;;;5100216;27;45555;-74
2023/12/15 09:20:24;;;;;;;;;36.25;25.75;;;;;;;;5087938;27;46356;-74
2023/12/15 09:22:49;;;;;;;;;29.25;26.00;;;;;;;;5090021;27;45479;-74
2023/12/15 09:25:14;;;;;;;;;37.25;28.50;;;;;;;;5090708;27;45756;-74
2023/12/15 09:27:40;;;;;;;;;37.67;34.33;;;;;;;;5090824;27;45453;-74
2023/12/15 09:30:05;;;;;;;;;33.00;28.67;;;;;;;;5091005;27;46833;-69
2023/12/15 09:32:30;;;;;;;;;32.75;25.25;;;;;;;;5092393;27;45483;-70
2023/12/15 09:34:56;;;;;;;;;27.00;23.00;;;;;;;;5092016;27;45504;-73
2023/12/15 09:37:22;;;;;;;;;27.00;23.75;;;;;;;;5090226;27;45445;-71
2023/12/15 09:39:47;;;;;;;;;32.33;23.33;;;;;;;;5087880;27;45819;-69
2023/12/15 09:42:12;;;;;;;;;28.50;22.50;;;;;;;;5087812;27;45757;-70
2023/12/15 09:44:38;;;;;;;;;21.00;20.33;;;;;;;;5087504;27;45632;-70
2023/12/15 09:47:04;;;;;;;;;23.00;22.75;;;;;;;;5095050;27;45398;-70
2023/12/15 09:49:31;;;;;;;;;27.67;23.00;;;;;;;;5093852;27;45443;-68
2023/12/15 09:51:56;;;;;;;;;34.75;29.00;;;;;;;;5094234;27;45460;-68
2023/12/15 09:54:22;;;;;;;;;28.75;26.25;;;;;;;;5091247;27;45718;-69
2023/12/15 09:56:48;;;;;;;;;35.50;29.75;;;;;;;;5095163;27;45552;-69
2023/12/15 09:59:14;;;;;;;;;22.50;22.00;;;;;;;;5094677;27;45543;-70
2023/12/15 10:01:39;;;;;;;;;27.00;24.25;;;;;;;;5093496;27;45341;-69
2023/12/15 10:04:05;;;;;;;;;21.67;21.67;;;;;;;;5093857;27;45506;-69
2023/12/15 10:06:32;;;;;;;;;26.75;23.75;;;;;;;;5094236;27;45495;-69
2023/12/15 10:08:59;;;;;;;;;24.75;22.50;;;;;;;;5094721;27;46054;-69
2023/12/15 10:11:24;;;;;;;;;32.00;26.75;;;;;;;;5090616;27;45314;-71
2023/12/15 10:13:49;;;;;;;;;27.25;20.50;;;;;;;;5090821;27;45437;-72
2023/12/15 10:16:14;;;;;;;;;28.33;21.00;;;;;;;;5094444;27;45491;-70
2023/12/15 10:18:40;;;;;;;;;33.67;27.00;;;;;;;;5075283;27;47782;-70
2023/12/15 10:21:05;;;;;;;;;35.25;28.25;;;;;;;;5093859;27;45396;-72
2023/12/15 10:23:31;;;;;;;;;23.75;20.75;;;;;;;;5088930;27;46967;-71
2023/12/15 10:26:02;;;;;;;;;28.00;22.00;;;;;;;;5096094;27;45425;-72
2023/12/15 10:28:33;;;;;;;;;25.67;23.67;;;;;;;;5089719;27;48637;-70
2023/12/15 10:30:59;;;;;;;;;21.00;21.00;;;;;;;;5092885;27;45456;-69
2023/12/15 10:33:26;;;;;;;;;21.67;16.00;;;;;;;;5095008;27;45692;-70
2023/12/15 10:35:53;;;;;;;;;18.33;18.33;;;;;;;;5095744;27;45567;-70
2023/12/15 10:38:18;;;;;;;;;26.33;19.67;;;;;;;;5094255;27;46663;-71
2023/12/15 10:40:43;;;;;;;;;21.33;18.67;;;;;;;;5094357;27;45491;-70
2023/12/15 10:43:11;;;;;;;;;26.00;17.67;;;;;;;;5093611;27;45339;-70
2023/12/15 10:45:37;;;;;;;;;23.33;19.33;;;;;;;;5089027;27;45382;-70
2023/12/15 10:48:03;;;;;;;;;21.67;19.67;;;;;;;;5087123;27;47334;-70
2023/12/15 10:50:29;;;;;;;;;29.33;22.67;;;;;;;;5091024;27;45541;-70
2023/12/15 10:52:55;;;;;;;;;21.33;19.67;;;;;;;;5089394;27;45680;-72
2023/12/15 10:55:23;;;;;;;;;22.67;19.33;;;;;;;;5077010;27;46101;-71
2023/12/15 10:57:48;;;;;;;;;23.33;19.67;;;;;;;;5092010;27;45960;-69
2023/12/15 11:00:17;;;;;;;;;28.50;23.25;;;;;;;;5073071;27;45645;-72
2023/12/15 11:02:43;;;;;;;;;23.00;18.33;;;;;;;;5071541;27;45690;-70
2023/12/15 11:05:09;;;;;;;;;24.00;24.00;;;;;;;;5092616;27;45565;-73
2023/12/15 11:07:34;;;;;;;;;18.33;15.67;;;;;;;;5094486;27;45705;-72
2023/12/15 11:09:59;;;;;;;;;22.33;21.33;;;;;;;;5094897;27;45369;-73
2023/12/15 11:12:37;;;;;;;;;28.00;20.33;;;;;;;;5094829;27;45459;-71
2023/12/15 11:15:06;;;;;;;;;26.67;22.00;;;;;;;;5092451;27;45639;-71
2023/12/15 11:17:32;;;;;;;;;29.67;22.67;;;;;;;;5090991;27;46496;-73
2023/12/15 11:20:02;;;;;;;;;29.00;25.33;;;;;;;;5093112;27;45708;-70
2023/12/15 11:22:28;;;;;;;;;26.00;21.67;;;;;;;;5091617;27;45575;-71
2023/12/15 11:24:53;;;;;;;;;29.67;22.67;;;;;;;;5072750;27;45572;-72
2023/12/15 11:27:18;;;;;;;;;30.67;26.00;;;;;;;;5087865;27;45820;-72
2023/12/15 11:29:43;;;;;;;;;33.75;25.75;;;;;;;;5091977;27;45525;-72
2023/12/15 11:32:28;;;;;;;;;29.00;25.00;;;;;;;;5082404;27;45453;-71
2023/12/15 11:34:53;;;;;;;;;33.25;27.25;;;;;;;;5086385;27;45480;-74
2023/12/15 11:37:19;;;;;;;;;33.50;31.50;;;;;;;;5082327;27;45648;-74
2023/12/15 11:39:46;;;;;;;;;38.50;30.25;;;;;;;;5084863;27;45596;-74
2023/12/15 11:42:12;;;;;;;;;28.50;26.25;;;;;;;;5074836;27;45499;-78
2023/12/15 11:44:37;;;;;;;;;30.00;24.25;;;;;;;;5093009;27;45686;-76
2023/12/15 11:47:02;;;;;;;;;26.67;22.00;;;;;;;;5075971;27;47159;-74
2023/12/15 11:49:27;;;;;;;;;31.67;26.00;;;;;;;;5092275;27;45547;-71
2023/12/15 11:51:52;;;;;;;;;33.33;27.00;;;;;;;;5084855;27;45495;-70
2023/12/15 11:54:18;;;;;;;;;31.33;28.00;;;;;;;;5088162;27;45602;-69
2023/12/15 11:56:44;;;;;;;;;27.33;23.00;;;;;;;;5085319;27;46672;-70
2023/12/15 11:59:09;;;;;;;;;29.00;25.33;;;;;;;;5085710;27;45434;-71
2023/12/15 12:01:36;;;;;;;;;31.67;23.67;;;;;;;;5093551;27;45434;-70
2023/12/15 12:04:01;;;;;;;;;32.25;27.75;;;;;;;;5095099;27;45501;-71
2023/12/15 12:06:26;;;;;;;;;30.33;29.67;;;;;;;;5091098;27;45595;-73
2023/12/15 12:08:52;;;;;;;;;26.00;21.00;;;;;;;;5065651;27;46274;-69
2023/12/15 12:11:17;;;;;;;;;33.67;28.00;;;;;;;;5082595;27;45378;-69
2023/12/15 12:13:42;;;;;;;;;31.00;26.33;;;;;;;;5086425;27;45716;-74
2023/12/15 12:16:08;;;;;;;;;31.33;27.00;;;;;;;;5084815;27;46394;-70
2023/12/15 12:18:33;;;;;;;;;28.00;26.67;;;;;;;;5087392;27;45441;-73
2023/12/15 12:21:03;;;;;;;;;30.67;27.67;;;;;;;;5087850;27;45755;-69
2023/12/15 12:23:29;;;;;;;;;32.67;27.00;;;;;;;;5086118;27;45566;-68
2023/12/15 12:25:55;;;;;;;;;32.75;27.50;;;;;;;;5093247;27;45855;-71
2023/12/15 12:28:21;;;;;;;;;31.00;27.33;;;;;;;;5085798;27;46002;-73
2023/12/15 12:30:47;;;;;;;;;31.67;23.67;;;;;;;;5088975;27;45533;-72
2023/12/15 12:33:13;;;;;;;;;22.33;21.67;;;;;;;;5094115;27;45609;-71
2023/12/15 12:35:38;;;;;;;;;34.25;27.00;;;;;;;;5087572;27;45686;-72
2023/12/15 12:38:03;;;;;;;;;26.33;21.67;;;;;;;;5087781;27;45421;-73
2023/12/15 12:40:29;;;;;;;;;27.00;22.33;;;;;;;;5086807;27;45427;-72
2023/12/15 12:42:57;;;;;;;;;21.67;21.00;;;;;;;;5074191;27;45489;-73
2023/12/15 12:45:22;;;;;;;;;24.00;19.33;;;;;;;;5089610;27;45948;-72
2023/12/15 12:47:49;;;;;;;;;29.33;17.33;;;;;;;;5093953;27;45323;-71
2023/12/15 12:50:14;;;;;;;;;18.67;18.67;;;;;;;;5095568;27;45477;-73
2023/12/15 12:52:40;;;;;;;;;34.00;30.75;;;;;;;;5091112;27;45422;-72
2023/12/15 12:55:06;;;;;;;;;30.67;26.67;;;;;;;;5088754;27;45530;-71
2023/12/15 12:57:32;;;;;;;;;39.75;34.25;;;;;;;;5076747;27;46494;-72
2023/12/15 12:59:57;;;;;;;;;29.00;27.00;;;;;;;;5089600;27;45579;-72
2023/12/15 13:02:23;;;;;;;;;37.00;32.25;;;;;;;;5089925;27;45477;-71
2023/12/15 13:04:50;;;;;;;;;26.67;18.00;;;;;;;;5085055;27;45768;-71
2023/12/15 13:07:15;;;;;;;;;21.00;16.67;;;;;;;;5090097;27;46345;-71
2023/12/15 13:09:40;;;;;;;;;22.00;15.33;;;;;;;;5088203;27;45363;-74
2023/12/15 13:12:05;;;;;;;;;26.33;25.00;;;;;;;;5094429;27;45608;-71
2023/12/15 13:14:30;;;;;;;;;24.67;20.33;;;;;;;;5096566;27;46460;-70
2023/12/15 13:16:56;;;;;;;;;19.67;13.67;;;;;;;;5089417;27;45420;-71
2023/12/15 13:19:21;;;;;;;;;23.00;18.00;;;;;;;;5091527;27;45495;-71
2023/12/15 13:21:47;;;;;;;;;27.00;19.33;;;;;;;;5088123;27;45609;-71
2023/12/15 13:24:12;;;;;;;;;14.00;11.00;;;;;;;;5094385;27;45825;-71
2023/12/15 13:26:37;;;;;;;;;9.33;8.33;;;;;;;;5085097;27;45524;-72
2023/12/15 13:29:03;;;;;;;;;13.00;10.00;;;;;;;;5091301;27;45442;-72
2023/12/15 13:31:29;;;;;;;;;16.67;12.00;;;;;;;;5091021;27;45470;-72
2023/12/15 13:33:54;;;;;;;;;15.33;10.67;;;;;;;;5092363;27;46763;-72
2023/12/15 13:36:19;;;;;;;;;18.33;12.00;;;;;;;;5085157;27;45444;-71
2023/12/15 13:38:48;;;;;;;;;14.00;13.33;;;;;;;;5071075;27;45386;-70
2023/12/15 13:41:14;;;;;;;;;14.67;11.67;;;;;;;;5090233;27;46157;-71
2023/12/15 13:43:39;;;;;;;;;17.67;12.00;;;;;;;;5075005;27;48970;-71
2023/12/15 13:46:05;;;;;;;;;10.67;10.67;;;;;;;;5096450;27;45547;-70
2023/12/15 13:48:30;;;;;;;;;13.33;13.33;;;;;;;;5087620;27;45516;-73
2023/12/15 13:50:56;;;;;;;;;16.00;11.00;;;;;;;;5092599;27;45486;-72
2023/12/15 13:53:21;;;;;;;;;13.33;9.67;;;;;;;;5092192;27;45442;-72
2023/12/15 13:55:46;;;;;;;;;8.67;8.33;;;;;;;;5088418;27;45965;-72
2023/12/15 13:58:12;;;;;;;;;14.67;11.00;;;;;;;;5084951;27;45304;-73
2023/12/15 14:00:37;;;;;;;;;13.00;11.67;;;;;;;;5094862;27;45511;-72
2023/12/15 14:03:03;;;;;;;;;21.00;15.33;;;;;;;;5091810;27;46198;-73
2023/12/15 14:05:28;;;;;;;;;23.67;15.67;;;;;;;;5087172;27;45332;-73
2023/12/15 14:07:53;;;;;;;;;17.00;15.00;;;;;;;;5091848;27;46182;-71